createdAt,value
2022-08-11T00:00:25.478Z,185.40
2022-08-11T00:01:26.003Z,189.50
2022-08-11T00:02:26.912Z,191.70
2022-08-11T00:03:42.488Z,191.20
2022-08-11T00:04:28.383Z,185.10
2022-08-11T00:05:28.922Z,184.80
2022-08-11T00:06:29.459Z,184.40
2022-08-11T00:07:30.030Z,183.80
2022-08-11T00:08:30.569Z,183.80
2022-08-11T00:09:31.097Z,183.80
2022-08-11T00:10:31.628Z,188.00
2022-08-11T00:11:32.169Z,188.60
2022-08-11T00:12:32.804Z,184.70
2022-08-11T00:13:33.352Z,186.60
2022-08-11T00:14:37.363Z,191.00
2022-08-11T00:15:34.531Z,185.10
2022-08-11T00:16:35.066Z,187.70
2022-08-11T00:17:35.644Z,183.50
2022-08-11T00:18:36.189Z,185.50
2022-08-11T00:20:14.492Z,185.30
2022-08-11T00:20:37.631Z,181.70
2022-08-11T00:22:04.038Z,173.60
2022-08-11T00:22:39.356Z,174.60
2022-08-11T00:23:39.562Z,172.70
2022-08-11T00:24:54.779Z,168.70
2022-08-11T00:25:41.002Z,173.40
2022-08-11T00:26:41.537Z,171.20
2022-08-11T00:27:42.116Z,172.10
2022-08-11T00:28:42.651Z,172.90
2022-08-11T00:29:51.854Z,171.90
2022-08-11T00:30:44.087Z,167.20
2022-08-11T00:31:44.617Z,175.80
2022-08-11T00:32:45.252Z,176.00
2022-08-11T00:33:45.782Z,174.00
2022-08-11T00:34:46.312Z,175.40
2022-08-11T00:35:51.124Z,180.90
2022-08-11T00:36:47.740Z,176.90
2022-08-11T00:37:48.356Z,175.20
2022-08-11T00:38:48.891Z,181.20
2022-08-11T00:39:49.468Z,178.10
2022-08-11T00:40:50.055Z,178.20
2022-08-11T00:41:56.828Z,176.40
2022-08-11T00:42:51.508Z,174.90
2022-08-11T00:43:52.044Z,174.90
2022-08-11T00:44:52.576Z,177.30
2022-08-11T00:45:53.113Z,174.40
2022-08-11T00:46:53.646Z,177.30
2022-08-11T00:47:54.314Z,176.20
2022-08-11T00:48:54.864Z,173.20
2022-08-11T00:49:55.408Z,172.80
2022-08-11T00:50:55.957Z,174.80
2022-08-11T00:52:04.108Z,173.20
2022-08-11T00:52:57.413Z,173.70
2022-08-11T00:53:57.954Z,174.00
2022-08-11T00:54:58.506Z,171.40
2022-08-11T00:55:59.043Z,175.90
2022-08-11T00:56:59.578Z,171.40
2022-08-11T00:58:00.213Z,170.70
2022-08-11T00:59:00.748Z,169.50
2022-08-11T01:00:03.786Z,169.10
2022-08-11T01:01:02.065Z,171.20
2022-08-11T01:02:02.633Z,170.90
2022-08-11T01:03:03.270Z,175.60
2022-08-11T01:04:03.797Z,170.70
2022-08-11T01:05:04.326Z,170.70
2022-08-11T01:06:05.395Z,167.10
2022-08-11T01:07:05.657Z,166.60
2022-08-11T01:08:06.226Z,168.40
2022-08-11T01:09:06.766Z,164.90
2022-08-11T01:10:07.598Z,166.90
2022-08-11T01:11:08.247Z,166.60
2022-08-11T01:12:08.779Z,166.40
2022-08-11T01:13:09.408Z,167.30
2022-08-11T01:14:09.903Z,163.50
2022-08-11T01:15:10.434Z,164.60
2022-08-11T01:16:10.965Z,164.70
2022-08-11T01:17:11.507Z,165.60
2022-08-11T01:18:12.405Z,164.80
2022-08-11T01:19:12.940Z,165.00
2022-08-11T01:20:44.666Z,164.60
2022-08-11T01:21:14.384Z,164.60
2022-08-11T01:22:14.943Z,166.10
2022-08-11T01:23:15.787Z,165.40
2022-08-11T01:24:16.403Z,164.90
2022-08-11T01:25:16.935Z,164.80
2022-08-11T01:26:17.476Z,165.40
2022-08-11T01:27:19.770Z,164.20
2022-08-11T01:28:18.743Z,164.20
2022-08-11T01:29:19.293Z,163.50
2022-08-11T01:30:19.831Z,164.00
2022-08-11T01:31:21.883Z,162.20
2022-08-11T01:32:20.945Z,161.90
2022-08-11T01:33:21.655Z,161.30
2022-08-11T01:34:22.189Z,162.40
2022-08-11T01:35:22.991Z,158.20
2022-08-11T01:36:23.530Z,156.90
2022-08-11T01:37:24.065Z,157.20
2022-08-11T01:38:24.628Z,158.30
2022-08-11T01:39:25.317Z,155.80
2022-08-11T01:40:25.901Z,157.70
2022-08-11T01:41:26.433Z,155.30
2022-08-11T01:42:26.974Z,158.60
2022-08-11T01:43:27.527Z,156.50
2022-08-11T01:44:28.059Z,157.40
2022-08-11T01:45:28.599Z,158.30
2022-08-11T01:46:29.127Z,158.60
2022-08-11T01:47:29.655Z,154.40
2022-08-11T01:48:30.343Z,155.00
2022-08-11T01:50:09.543Z,155.70
2022-08-11T01:50:31.784Z,160.60
2022-08-11T01:51:32.323Z,158.20
2022-08-11T01:52:34.863Z,158.30
2022-08-11T01:53:33.918Z,155.40
2022-08-11T01:54:34.450Z,152.40
2022-08-11T01:55:34.992Z,159.60
2022-08-11T01:56:35.530Z,160.30
2022-08-11T01:57:36.078Z,166.20
2022-08-11T01:58:44.123Z,151.70
2022-08-11T01:59:37.540Z,148.50
2022-08-11T02:00:38.133Z,155.90
2022-08-11T02:01:38.706Z,155.70
2022-08-11T02:02:39.325Z,155.60
2022-08-11T02:03:39.945Z,155.80
2022-08-11T02:04:40.478Z,156.40
2022-08-11T02:05:41.013Z,155.50
2022-08-11T02:06:41.539Z,154.70
2022-08-11T02:07:42.069Z,153.00
2022-08-11T02:08:44.785Z,153.70
2022-08-11T02:09:49.744Z,155.50
2022-08-11T02:10:50.437Z,151.40
2022-08-11T02:11:45.321Z,151.70
2022-08-11T02:12:52.288Z,152.20
2022-08-11T02:13:47.347Z,155.60
2022-08-11T02:14:53.568Z,152.50
2022-08-11T02:15:48.827Z,153.40
2022-08-11T02:16:49.356Z,153.70
2022-08-11T02:17:50.643Z,154.10
2022-08-11T02:18:50.819Z,150.40
2022-08-11T02:19:51.351Z,152.50
2022-08-11T02:20:51.883Z,154.00
2022-08-11T02:21:52.420Z,152.00
2022-08-11T02:22:52.960Z,150.70
2022-08-11T02:24:06.750Z,153.20
2022-08-11T02:24:54.425Z,152.20
2022-08-11T02:25:54.958Z,150.80
2022-08-11T02:26:55.493Z,152.00
2022-08-11T02:27:56.032Z,153.60
2022-08-11T02:28:56.591Z,152.30
2022-08-11T02:29:57.128Z,156.20
2022-08-11T02:30:57.666Z,156.90
2022-08-11T02:32:24.079Z,159.20
2022-08-11T02:32:59.101Z,157.20
2022-08-11T02:33:59.935Z,156.20
2022-08-11T02:35:00.809Z,159.00
2022-08-11T02:36:01.388Z,156.00
2022-08-11T02:37:01.921Z,159.20
2022-08-11T02:38:02.459Z,157.90
2022-08-11T02:39:03.079Z,156.90
2022-08-11T02:40:03.631Z,156.40
2022-08-11T02:41:04.186Z,159.40
2022-08-11T02:42:04.716Z,160.10
2022-08-11T02:43:05.260Z,161.10
2022-08-11T02:44:05.901Z,159.10
2022-08-11T02:45:06.432Z,160.10
2022-08-11T02:46:06.969Z,159.50
2022-08-11T02:47:07.523Z,165.70
2022-08-11T02:48:08.052Z,169.20
2022-08-11T02:49:08.665Z,166.00
2022-08-11T02:50:09.211Z,166.10
2022-08-11T02:51:09.743Z,166.20
2022-08-11T02:52:10.291Z,167.00
2022-08-11T02:53:10.829Z,164.00
2022-08-11T02:54:11.444Z,165.40
2022-08-11T02:55:11.991Z,167.60
2022-08-11T02:56:12.886Z,169.20
2022-08-11T02:57:13.423Z,168.60
2022-08-11T02:58:13.959Z,170.10
2022-08-11T02:59:14.805Z,170.30
2022-08-11T03:00:15.348Z,171.20
2022-08-11T03:01:15.990Z,169.60
2022-08-11T03:02:16.569Z,169.30
2022-08-11T03:03:17.097Z,171.40
2022-08-11T03:04:17.717Z,170.40
2022-08-11T03:05:18.250Z,170.60
2022-08-11T03:06:18.786Z,171.30
2022-08-11T03:07:28.903Z,169.10
2022-08-11T03:08:20.224Z,168.60
2022-08-11T03:09:20.781Z,168.30
2022-08-11T03:10:21.305Z,165.10
2022-08-11T03:11:21.843Z,164.20
2022-08-11T03:12:22.373Z,164.20
2022-08-11T03:13:22.911Z,163.40
2022-08-11T03:14:23.556Z,158.60
2022-08-11T03:15:24.261Z,156.60
2022-08-11T03:16:24.791Z,156.30
2022-08-11T03:17:25.352Z,156.60
2022-08-11T03:18:25.897Z,156.90
2022-08-11T03:19:33.013Z,160.40
2022-08-11T03:20:33.494Z,160.20
2022-08-11T03:22:01.158Z,158.50
2022-08-11T03:22:29.186Z,160.40
2022-08-11T03:23:29.725Z,159.40
2022-08-11T03:24:30.289Z,157.20
2022-08-11T03:25:30.814Z,158.00
2022-08-11T03:26:31.354Z,160.50
2022-08-11T03:27:31.888Z,157.70
2022-08-11T03:28:32.422Z,155.70
2022-08-11T03:29:32.987Z,153.20
2022-08-11T03:30:33.524Z,154.30
2022-08-11T03:31:34.142Z,150.30
2022-08-11T03:32:34.677Z,151.30
2022-08-11T03:33:35.206Z,151.70
2022-08-11T03:34:35.806Z,150.40
2022-08-11T03:35:36.334Z,150.60
2022-08-11T03:36:55.772Z,146.80
2022-08-11T03:37:37.772Z,150.50
2022-08-11T03:38:38.325Z,149.60
2022-08-11T03:39:38.925Z,147.70
2022-08-11T03:40:39.791Z,147.40
2022-08-11T03:42:02.712Z,148.60
2022-08-11T03:42:41.230Z,148.70
2022-08-11T03:43:50.281Z,147.70
2022-08-11T03:44:42.696Z,146.30
2022-08-11T03:45:43.222Z,148.10
2022-08-11T03:46:43.756Z,148.30
2022-08-11T03:47:55.269Z,145.30
2022-08-11T03:48:45.195Z,148.60
2022-08-11T03:49:45.865Z,150.10
2022-08-11T03:50:46.401Z,147.10
2022-08-11T03:51:52.093Z,145.10
2022-08-11T03:52:47.840Z,142.70
2022-08-11T03:53:48.386Z,143.70
2022-08-11T03:54:48.984Z,144.10
2022-08-11T03:55:49.519Z,143.70
2022-08-11T03:56:50.059Z,144.70
2022-08-11T03:57:50.596Z,147.00
2022-08-11T03:58:51.133Z,147.80
2022-08-11T03:59:51.687Z,148.50
2022-08-11T04:00:52.216Z,145.90
2022-08-11T04:01:52.777Z,146.80
2022-08-11T04:02:53.346Z,143.40
2022-08-11T04:03:53.881Z,148.80
2022-08-11T04:04:54.477Z,148.50
2022-08-11T04:05:55.026Z,149.60
2022-08-11T04:06:55.586Z,149.10
2022-08-11T04:07:56.129Z,148.20
2022-08-11T04:08:56.675Z,152.10
2022-08-11T04:09:57.235Z,151.00
2022-08-11T04:10:58.313Z,151.30
2022-08-11T04:11:58.747Z,151.00
2022-08-11T04:12:59.283Z,149.10
2022-08-11T04:13:59.820Z,150.60
2022-08-11T04:15:00.378Z,151.00
2022-08-11T04:16:11.123Z,153.00
2022-08-11T04:17:01.814Z,153.70
2022-08-11T04:18:02.345Z,154.60
2022-08-11T04:19:02.880Z,152.80
2022-08-11T04:20:03.435Z,151.70
2022-08-11T04:21:03.972Z,152.40
2022-08-11T04:22:04.508Z,155.60
2022-08-11T04:23:05.089Z,153.00
2022-08-11T04:24:37.119Z,153.20
2022-08-11T04:25:06.557Z,154.00
2022-08-11T04:26:18.568Z,154.60
2022-08-11T04:27:08.206Z,152.60
2022-08-11T04:28:08.900Z,153.30
2022-08-11T04:29:09.827Z,151.80
2022-08-11T04:30:11.927Z,151.60
2022-08-11T04:31:11.269Z,152.60
2022-08-11T04:32:11.806Z,155.50
2022-08-11T04:33:12.338Z,154.00
2022-08-11T04:34:12.862Z,152.30
2022-08-11T04:35:13.416Z,152.90
2022-08-11T04:36:13.946Z,154.50
2022-08-11T04:37:14.474Z,155.00
2022-08-11T04:38:15.014Z,154.60
2022-08-11T04:39:15.605Z,155.80
2022-08-11T04:40:16.185Z,154.70
2022-08-11T04:41:16.735Z,153.50
2022-08-11T04:42:17.277Z,154.70
2022-08-11T04:43:17.827Z,155.10
2022-08-11T04:44:18.362Z,153.10
2022-08-11T04:45:18.989Z,156.10
2022-08-11T04:46:19.516Z,156.60
2022-08-11T04:47:20.049Z,158.00
2022-08-11T04:48:20.576Z,156.90
2022-08-11T04:49:25.801Z,157.00
2022-08-11T04:50:22.079Z,159.80
2022-08-11T04:51:22.611Z,158.20
2022-08-11T04:52:23.146Z,155.40
2022-08-11T04:53:23.708Z,157.70
2022-08-11T04:54:28.408Z,126.30
2022-08-11T04:55:24.798Z,116.30
2022-08-11T04:56:25.327Z,117.70
2022-08-11T04:57:25.854Z,117.80
2022-08-11T04:58:31.170Z,115.80
2022-08-11T04:59:27.306Z,114.50
2022-08-11T05:00:27.878Z,115.60
2022-08-11T05:01:28.478Z,110.50
2022-08-11T05:02:29.096Z,110.50
2022-08-11T05:03:29.690Z,107.80
2022-08-11T05:04:30.231Z,109.80
2022-08-11T05:05:30.826Z,108.80
2022-08-11T05:06:31.367Z,106.30
2022-08-11T05:07:31.908Z,105.80
2022-08-11T05:08:32.442Z,104.80
2022-08-11T05:09:32.976Z,107.90
2022-08-11T05:10:33.523Z,106.30
2022-08-11T05:11:34.431Z,103.90
2022-08-11T05:12:34.968Z,108.70
2022-08-11T05:13:35.533Z,108.40
2022-08-11T05:14:36.073Z,104.70
2022-08-11T05:15:42.448Z,107.30
2022-08-11T05:16:37.603Z,105.60
2022-08-11T05:17:38.139Z,105.40
2022-08-11T05:18:38.666Z,105.40
2022-08-11T05:19:39.201Z,105.50
2022-08-11T05:20:39.757Z,106.80
2022-08-11T05:21:45.124Z,106.70
2022-08-11T05:22:41.194Z,106.00
2022-08-11T05:23:41.727Z,103.90
2022-08-11T05:24:42.270Z,106.00
2022-08-11T05:26:43.644Z,104.20
2022-08-11T05:26:49.099Z,100.80
2022-08-11T05:27:44.618Z,101.60
2022-08-11T05:28:45.159Z,101.70
2022-08-11T05:29:45.685Z,97.00
2022-08-11T05:30:46.260Z,96.00
2022-08-11T05:31:46.802Z,96.40
2022-08-11T05:32:47.336Z,99.30
2022-08-11T05:33:47.871Z,96.20
2022-08-11T05:34:48.404Z,97.50
2022-08-11T05:36:02.097Z,96.20
2022-08-11T05:36:49.903Z,95.70
2022-08-11T05:37:50.435Z,99.50
2022-08-11T05:38:50.966Z,98.60
2022-08-11T05:39:51.530Z,97.40
2022-08-11T05:40:53.357Z,98.70
2022-08-11T05:41:53.035Z,99.70
2022-08-11T05:42:53.561Z,98.30
2022-08-11T05:44:20.446Z,99.70
2022-08-11T05:44:54.992Z,99.80
2022-08-11T05:46:03.073Z,104.30
2022-08-11T05:46:56.553Z,100.90
2022-08-11T05:47:57.111Z,99.00
2022-08-11T05:48:57.644Z,100.10
2022-08-11T05:49:58.332Z,102.10
2022-08-11T05:50:59.023Z,100.50
2022-08-11T05:52:05.719Z,103.00
2022-08-11T05:53:00.478Z,102.20
2022-08-11T05:54:01.384Z,101.00
2022-08-11T05:55:05.363Z,102.00
2022-08-11T05:56:03.960Z,105.40
2022-08-11T05:57:03.604Z,108.00
2022-08-11T05:58:04.142Z,107.70
2022-08-11T05:59:04.672Z,105.10
2022-08-11T06:00:05.215Z,102.30
2022-08-11T06:01:06.103Z,102.90
2022-08-11T06:02:06.654Z,103.00
2022-08-11T06:03:07.195Z,104.00
2022-08-11T06:04:07.738Z,105.40
2022-08-11T06:05:08.272Z,104.60
2022-08-11T06:06:09.180Z,103.80
2022-08-11T06:07:09.716Z,104.80
2022-08-11T06:08:10.248Z,104.90
2022-08-11T06:09:10.789Z,104.40
2022-08-11T06:10:11.329Z,106.50
2022-08-11T06:11:11.885Z,106.70
2022-08-11T06:12:12.429Z,104.60
2022-08-11T06:13:12.979Z,105.10
2022-08-11T06:14:13.520Z,106.00
2022-08-11T06:15:14.047Z,105.50
2022-08-11T06:16:14.605Z,107.60
2022-08-11T06:17:15.143Z,107.70
2022-08-11T06:18:15.673Z,106.90
2022-08-11T06:19:16.203Z,108.40
2022-08-11T06:20:16.733Z,106.10
2022-08-11T06:21:17.301Z,107.20
2022-08-11T06:22:17.827Z,108.00
2022-08-11T06:23:18.360Z,107.20
2022-08-11T06:24:18.907Z,107.30
2022-08-11T06:25:19.464Z,103.50
2022-08-11T06:26:20.024Z,107.40
2022-08-11T06:27:20.565Z,107.90
2022-08-11T06:28:21.470Z,108.20
2022-08-11T06:29:22.052Z,105.30
2022-08-11T06:30:22.969Z,107.40
2022-08-11T06:31:23.565Z,105.90
2022-08-11T06:32:24.097Z,105.00
2022-08-11T06:33:24.625Z,105.10
2022-08-11T06:34:27.648Z,102.80
2022-08-11T06:35:25.904Z,101.50
2022-08-11T06:36:26.467Z,101.20
2022-08-11T06:37:26.995Z,104.50
2022-08-11T06:38:27.536Z,107.20
2022-08-11T06:39:28.169Z,109.70
2022-08-11T06:40:28.726Z,158.80
2022-08-11T06:41:29.277Z,177.20
2022-08-11T06:42:29.817Z,192.80
2022-08-11T06:43:30.356Z,166.70
2022-08-11T06:44:30.909Z,165.20
2022-08-11T06:45:31.446Z,183.30
2022-08-11T06:46:31.990Z,202.90
2022-08-11T06:47:32.525Z,175.40
2022-08-11T06:48:33.057Z,160.00
2022-08-11T06:49:33.585Z,132.70
2022-08-11T06:50:34.118Z,120.80
2022-08-11T06:51:34.792Z,140.10
2022-08-11T06:52:36.380Z,182.60
2022-08-11T06:53:36.129Z,136.50
2022-08-11T06:54:36.669Z,128.70
2022-08-11T06:55:57.479Z,147.70
2022-08-11T06:56:38.161Z,175.40
2022-08-11T06:57:38.696Z,134.60
2022-08-11T06:58:39.224Z,135.00
2022-08-11T06:59:39.756Z,143.90
2022-08-11T07:00:40.288Z,164.70
2022-08-11T07:01:41.083Z,174.90
2022-08-11T07:02:41.970Z,205.00
2022-08-11T07:03:42.652Z,203.10
2022-08-11T07:04:43.185Z,187.00
2022-08-11T07:05:43.822Z,168.90
2022-08-11T07:06:50.756Z,163.00
2022-08-11T07:07:45.404Z,181.90
2022-08-11T07:08:45.936Z,180.20
2022-08-11T07:09:46.502Z,206.00
2022-08-11T07:10:47.052Z,200.40
2022-08-11T07:11:47.611Z,183.90
2022-08-11T07:12:48.142Z,164.40
2022-08-11T07:13:48.974Z,173.50
2022-08-11T07:14:49.467Z,162.30
2022-08-11T07:16:13.257Z,182.80
2022-08-11T07:16:50.939Z,174.40
2022-08-11T07:17:51.475Z,168.50
2022-08-11T07:18:52.006Z,182.90
2022-08-11T07:19:52.496Z,162.20
2022-08-11T07:20:53.442Z,165.90
2022-08-11T07:22:02.514Z,156.60
2022-08-11T07:22:55.412Z,162.80
2022-08-11T07:23:55.941Z,155.40
2022-08-11T07:25:01.726Z,155.30
2022-08-11T07:25:57.378Z,194.30
2022-08-11T07:26:57.942Z,267.40
2022-08-11T07:27:58.484Z,274.00
2022-08-11T07:28:59.134Z,304.10
2022-08-11T07:29:59.707Z,291.80
2022-08-11T07:31:00.752Z,250.30
2022-08-11T07:32:01.323Z,256.00
2022-08-11T07:33:01.817Z,306.80
2022-08-11T07:34:07.440Z,396.00
2022-08-11T07:35:03.150Z,358.30
2022-08-11T07:36:04.211Z,429.90
2022-08-11T07:37:04.847Z,421.50
2022-08-11T07:38:07.194Z,350.50
2022-08-11T07:39:06.144Z,286.50
2022-08-11T07:40:06.674Z,215.70
2022-08-11T07:41:07.211Z,203.20
2022-08-11T07:42:07.850Z,255.90
2022-08-11T07:43:08.387Z,250.00
2022-08-11T07:44:09.109Z,228.80
2022-08-11T07:45:09.776Z,217.70
2022-08-11T07:46:10.765Z,233.00
2022-08-11T07:47:11.357Z,229.40
2022-08-11T07:48:11.856Z,225.60
2022-08-11T07:49:12.334Z,269.80
2022-08-11T07:50:13.318Z,314.20
2022-08-11T07:51:14.294Z,328.70
2022-08-11T07:52:15.424Z,347.80
2022-08-11T07:53:15.913Z,413.90
2022-08-11T07:54:17.510Z,443.60
2022-08-11T07:55:17.619Z,334.90
2022-08-11T07:56:19.625Z,337.60
2022-08-11T07:57:49.387Z,412.70
2022-08-11T07:58:20.422Z,370.60
2022-08-11T07:59:20.535Z,360.90
2022-08-11T08:00:21.426Z,414.10
2022-08-11T08:01:22.918Z,337.30
2022-08-11T08:02:23.064Z,347.00
2022-08-11T08:03:23.902Z,336.40
2022-08-11T08:04:24.386Z,322.50
2022-08-11T08:05:25.367Z,324.70
2022-08-11T08:06:36.010Z,321.90
2022-08-11T08:07:27.361Z,324.90
2022-08-11T08:08:27.891Z,328.70
2022-08-11T08:09:28.427Z,314.80
2022-08-11T08:10:28.968Z,317.90
2022-08-11T08:11:29.512Z,330.90
2022-08-11T08:12:30.218Z,314.10
2022-08-11T08:13:30.804Z,330.10
2022-08-11T08:14:31.335Z,322.10
2022-08-11T08:15:31.877Z,329.50
2022-08-11T08:16:32.400Z,320.50
2022-08-11T08:17:32.958Z,315.20
2022-08-11T08:18:33.500Z,310.30
2022-08-11T08:19:34.041Z,304.50
2022-08-11T08:20:34.574Z,303.30
2022-08-11T08:21:35.109Z,309.10
2022-08-11T08:22:37.702Z,307.70
2022-08-11T08:23:36.285Z,313.10
2022-08-11T08:24:36.943Z,296.50
2022-08-11T08:25:37.502Z,298.50
2022-08-11T08:26:38.052Z,322.30
2022-08-11T08:27:38.659Z,303.60
2022-08-11T08:28:39.223Z,310.40
2022-08-11T08:29:40.161Z,301.50
2022-08-11T08:30:40.702Z,298.00
2022-08-11T08:31:41.246Z,293.70
2022-08-11T08:32:41.816Z,302.90
2022-08-11T08:33:42.369Z,299.40
2022-08-11T08:34:42.909Z,302.60
2022-08-11T08:35:55.804Z,288.40
2022-08-11T08:36:44.353Z,296.00
2022-08-11T08:37:47.544Z,289.10
2022-08-11T08:38:45.874Z,280.00
2022-08-11T08:39:46.494Z,281.00
2022-08-11T08:40:47.063Z,277.30
2022-08-11T08:41:47.600Z,269.30
2022-08-11T08:42:48.447Z,283.00
2022-08-11T08:43:50.357Z,263.90
2022-08-11T08:44:49.889Z,279.30
2022-08-11T08:45:50.439Z,250.50
2022-08-11T08:46:50.975Z,261.60
2022-08-11T08:47:53.361Z,267.80
2022-08-11T08:48:53.302Z,251.20
2022-08-11T08:49:52.737Z,256.30
2022-08-11T08:50:53.265Z,248.10
2022-08-11T08:52:02.501Z,249.40
2022-08-11T08:52:54.773Z,245.80
2022-08-11T08:53:56.375Z,243.80
2022-08-11T08:54:56.244Z,254.10
2022-08-11T08:55:56.779Z,268.30
2022-08-11T08:56:57.320Z,264.90
2022-08-11T08:57:57.998Z,271.00
2022-08-11T08:58:58.536Z,269.80
2022-08-11T08:59:59.022Z,268.80
2022-08-11T09:01:00.088Z,268.00
2022-08-11T09:02:00.667Z,269.40
2022-08-11T09:03:17.280Z,262.20
2022-08-11T09:04:10.577Z,252.60
2022-08-11T09:05:03.047Z,266.50
2022-08-11T09:06:03.595Z,274.20
2022-08-11T09:07:04.139Z,283.90
2022-08-11T09:08:04.743Z,281.40
2022-08-11T09:09:05.275Z,280.60
2022-08-11T09:10:05.807Z,290.60
2022-08-11T09:11:10.582Z,295.60
2022-08-11T09:12:07.244Z,315.90
2022-08-11T09:13:07.805Z,310.60
2022-08-11T09:14:11.610Z,311.80
2022-08-11T09:15:09.341Z,296.50
2022-08-11T09:16:09.912Z,289.60
2022-08-11T09:17:10.456Z,365.50
2022-08-11T09:18:11.047Z,364.20
2022-08-11T09:19:11.590Z,361.10
2022-08-11T09:20:12.127Z,355.30
2022-08-11T09:21:13.044Z,369.30
2022-08-11T09:22:13.583Z,351.30
2022-08-11T09:24:25.616Z,332.70
2022-08-11T09:25:15.942Z,311.60
2022-08-11T09:26:16.430Z,303.60
2022-08-11T09:27:17.406Z,267.10
2022-08-11T09:28:18.470Z,278.20
2022-08-11T09:29:19.000Z,280.90
2022-08-11T09:30:19.621Z,285.70
2022-08-11T09:31:21.611Z,284.40
2022-08-11T09:32:21.083Z,267.60
2022-08-11T09:33:21.639Z,271.30
2022-08-11T09:34:22.188Z,279.40
2022-08-11T09:35:22.736Z,264.60
2022-08-11T09:36:23.268Z,268.50
2022-08-11T09:37:54.142Z,270.10
2022-08-11T09:38:24.741Z,254.70
2022-08-11T09:39:25.373Z,269.70
2022-08-11T09:40:27.220Z,268.90
2022-08-11T09:41:26.513Z,294.60
2022-08-11T09:42:27.414Z,279.20
2022-08-11T09:43:27.973Z,285.60
2022-08-11T09:44:28.521Z,310.00
2022-08-11T09:45:29.053Z,307.50
2022-08-11T09:46:29.957Z,294.90
2022-08-11T09:47:30.580Z,288.30
2022-08-11T09:48:31.110Z,297.60
2022-08-11T09:49:31.645Z,280.30
2022-08-11T09:50:32.181Z,269.60
2022-08-11T09:51:32.949Z,270.80
2022-08-11T09:52:33.485Z,266.30
2022-08-11T09:53:37.139Z,267.40
2022-08-11T09:54:34.988Z,253.50
2022-08-11T09:55:35.523Z,263.50
2022-08-11T09:56:36.060Z,271.30
2022-08-11T09:57:36.864Z,288.20
2022-08-11T09:58:42.872Z,290.30
2022-08-11T09:59:38.070Z,287.10
2022-08-11T10:00:38.557Z,281.80
2022-08-11T10:01:39.720Z,265.60
2022-08-11T10:02:40.228Z,260.20
2022-08-11T10:03:41.302Z,259.70
2022-08-11T10:04:41.838Z,258.70
2022-08-11T10:05:42.373Z,243.40
2022-08-11T10:06:42.866Z,280.90
2022-08-11T10:07:43.619Z,427.30
2022-08-11T10:08:44.129Z,570.00
2022-08-11T10:09:44.664Z,474.30
2022-08-11T10:10:45.193Z,483.00
2022-08-11T10:11:45.728Z,482.90
2022-08-11T10:12:46.629Z,429.40
2022-08-11T10:14:33.947Z,369.70
2022-08-11T10:14:48.139Z,362.80
2022-08-11T10:16:03.582Z,345.60
2022-08-11T10:16:49.625Z,309.30
2022-08-11T10:17:50.155Z,306.40
2022-08-11T10:18:50.734Z,316.60
2022-08-11T10:20:04.099Z,293.80
2022-08-11T10:20:52.182Z,313.30
2022-08-11T10:21:52.725Z,337.60
2022-08-11T10:22:53.260Z,346.20
2022-08-11T10:24:00.662Z,366.60
2022-08-11T10:24:54.735Z,361.70
2022-08-11T10:25:55.267Z,353.30
2022-08-11T10:26:55.811Z,311.20
2022-08-11T10:28:28.747Z,315.60
2022-08-11T10:29:12.537Z,314.40
2022-08-11T10:29:58.187Z,306.80
2022-08-11T10:30:58.794Z,300.70
2022-08-11T10:32:04.275Z,287.40
2022-08-11T10:33:00.420Z,288.10
2022-08-11T10:34:01.562Z,285.90
2022-08-11T10:35:01.895Z,281.20
2022-08-11T10:36:02.429Z,279.90
2022-08-11T10:37:02.981Z,281.80
2022-08-11T10:38:03.563Z,282.20
2022-08-11T10:39:04.499Z,277.80
2022-08-11T10:40:05.036Z,271.10
2022-08-11T10:41:05.588Z,281.20
2022-08-11T10:42:08.550Z,270.50
2022-08-11T10:43:06.743Z,264.40
2022-08-11T10:44:07.308Z,267.80
2022-08-11T10:45:07.846Z,267.00
2022-08-11T10:46:08.400Z,267.90
2022-08-11T10:47:08.948Z,261.70
2022-08-11T10:48:13.509Z,263.60
2022-08-11T10:49:10.432Z,263.70
2022-08-11T10:50:10.966Z,260.90
2022-08-11T10:51:11.496Z,275.70
2022-08-11T10:52:12.035Z,270.90
2022-08-11T10:53:12.566Z,266.70
2022-08-11T10:54:13.222Z,268.00
2022-08-11T10:55:13.767Z,263.80
2022-08-11T10:56:14.307Z,271.30
2022-08-11T10:57:14.869Z,261.50
2022-08-11T10:58:15.405Z,267.00
2022-08-11T10:59:15.964Z,263.00
2022-08-11T11:00:16.588Z,269.00
2022-08-11T11:01:17.272Z,260.10
2022-08-11T11:02:17.869Z,266.70
2022-08-11T11:03:23.527Z,264.10
2022-08-11T11:04:19.399Z,259.30
2022-08-11T11:05:19.933Z,265.30
2022-08-11T11:06:28.482Z,265.40
2022-08-11T11:07:21.376Z,255.40
2022-08-11T11:08:21.910Z,262.30
2022-08-11T11:09:22.480Z,255.00
2022-08-11T11:10:23.029Z,262.30
2022-08-11T11:11:23.591Z,265.90
2022-08-11T11:12:24.134Z,258.80
2022-08-11T11:13:24.684Z,263.30
2022-08-11T11:14:27.199Z,270.40
2022-08-11T11:15:25.876Z,264.20
2022-08-11T11:16:26.421Z,260.20
2022-08-11T11:17:27.132Z,262.50
2022-08-11T11:18:27.670Z,258.90
2022-08-11T11:19:28.228Z,257.30
2022-08-11T11:20:36.467Z,258.60
2022-08-11T11:21:29.665Z,249.30
2022-08-11T11:22:30.197Z,245.40
2022-08-11T11:23:30.730Z,247.40
2022-08-11T11:24:31.302Z,245.30
2022-08-11T11:25:31.833Z,247.40
2022-08-11T11:26:32.360Z,256.30
2022-08-11T11:27:32.894Z,252.70
2022-08-11T11:28:33.425Z,254.30
2022-08-11T11:29:34.012Z,240.60
2022-08-11T11:30:34.560Z,248.80
2022-08-11T11:31:35.120Z,248.80
2022-08-11T11:32:35.657Z,251.40
2022-08-11T11:34:06.349Z,242.80
2022-08-11T11:34:37.138Z,238.70
2022-08-11T11:35:38.041Z,244.60
2022-08-11T11:36:38.568Z,238.90
2022-08-11T11:37:39.097Z,240.30
2022-08-11T11:38:39.635Z,228.60
2022-08-11T11:39:40.245Z,231.60
2022-08-11T11:40:40.800Z,246.80
2022-08-11T11:41:41.332Z,234.50
2022-08-11T11:42:41.865Z,236.80
2022-08-11T11:43:42.400Z,233.30
2022-08-11T11:44:42.962Z,235.80
2022-08-11T11:45:43.506Z,227.50
2022-08-11T11:46:44.044Z,234.00
2022-08-11T11:47:44.571Z,221.10
2022-08-11T11:48:45.099Z,232.30
2022-08-11T11:49:45.657Z,233.90
2022-08-11T11:50:46.183Z,237.80
2022-08-11T11:51:49.911Z,233.60
2022-08-11T11:52:47.427Z,222.10
2022-08-11T11:53:47.963Z,230.20
2022-08-11T11:54:48.608Z,223.00
2022-08-11T11:55:49.143Z,233.90
2022-08-11T11:56:49.704Z,233.30
2022-08-11T11:57:58.948Z,231.20
2022-08-11T11:58:51.134Z,230.20
2022-08-11T11:59:51.692Z,222.00
2022-08-11T12:00:52.232Z,229.30
2022-08-11T12:01:52.862Z,240.60
2022-08-11T12:02:53.438Z,220.60
2022-08-11T12:03:54.002Z,222.00
2022-08-11T12:04:54.553Z,223.10
2022-08-11T12:05:55.083Z,222.80
2022-08-11T12:06:55.612Z,217.90
2022-08-11T12:07:56.951Z,211.70
2022-08-11T12:08:57.042Z,211.80
2022-08-11T12:09:57.636Z,223.30
2022-08-11T12:10:58.175Z,216.20
2022-08-11T12:11:58.705Z,221.20
2022-08-11T12:12:59.245Z,221.00
2022-08-11T12:13:59.794Z,215.80
2022-08-11T12:15:00.346Z,209.70
2022-08-11T12:16:05.407Z,219.50
2022-08-11T12:17:01.778Z,217.50
2022-08-11T12:18:02.306Z,213.20
2022-08-11T12:19:02.844Z,212.40
2022-08-11T12:20:03.401Z,210.00
2022-08-11T12:21:03.936Z,217.90
2022-08-11T12:22:04.468Z,216.00
2022-08-11T12:23:05.019Z,218.70
2022-08-11T12:24:05.556Z,218.50
2022-08-11T12:25:06.175Z,214.70
2022-08-11T12:26:27.851Z,205.90
2022-08-11T12:27:17.186Z,215.00
2022-08-11T12:28:08.515Z,206.50
2022-08-11T12:29:09.054Z,216.50
2022-08-11T12:30:09.726Z,214.10
2022-08-11T12:31:10.319Z,212.60
2022-08-11T12:32:10.848Z,214.40
2022-08-11T12:33:11.404Z,211.40
2022-08-11T12:34:11.949Z,202.00
2022-08-11T12:35:12.582Z,200.70
2022-08-11T12:36:13.121Z,206.00
2022-08-11T12:37:14.020Z,210.90
2022-08-11T12:38:14.638Z,212.10